Time;durP1;ratioP1;P1;durP2;ratioP2;P2;SDS_P1;SDS_P2;PMS_P1;PMS_P2;Temp;Humidity;BMP_temperature;BMP_pressure;BME280_temperature;BME280_humidity;BME280_pressure;Samples;Min_cycle;Max_cycle;Signal;HPM_P1;HPM_P2
2022/01/20 00:00:40;;;;;;;9.98;4.85;;;;;;;;;;5073223;28;20159;-77
2022/01/20 00:03:13;;;;;;;8.90;4.53;;;;;;;;;;5073371;28;20044;-73
2022/01/20 00:27:36;;;;;;;9.23;3.65;;;;;;;;;;5072547;28;20036;-73
2022/01/20 00:35:31;;;;;;;9.38;3.60;;;;;;;;;;5055002;28;20044;-77
2022/01/20 00:37:58;;;;;;;8.63;3.67;;;;;;;;;;5054915;28;20054;-73
2022/01/20 00:40:26;;;;;;;9.57;3.55;;;;;;;;;;5038473;28;20130;-75
2022/01/20 00:42:53;;;;;;;6.22;3.60;;;;;;;;;;5073002;28;20047;-74
2022/01/20 00:45:21;;;;;;;9.75;4.03;;;;;;;;;;5072646;28;20047;-77
2022/01/20 00:47:49;;;;;;;6.38;3.80;;;;;;;;;;5072822;28;20060;-74
2022/01/20 00:50:16;;;;;;;6.57;3.47;;;;;;;;;;5038294;28;20040;-78
2022/01/20 00:52:44;;;;;;;5.60;3.45;;;;;;;;;;5038139;28;20415;-73
2022/01/20 00:55:13;;;;;;;8.55;3.65;;;;;;;;;;5072691;28;20047;-74
2022/01/20 00:57:41;;;;;;;8.35;3.65;;;;;;;;;;5072468;28;20491;-74
2022/01/20 01:00:10;;;;;;;7.30;3.53;;;;;;;;;;5072822;28;20051;-76
2022/01/20 01:02:39;;;;;;;12.27;3.95;;;;;;;;;;5038598;28;20107;-77
2022/01/20 01:05:07;;;;;;;6.05;3.28;;;;;;;;;;5054460;28;20049;-77
2022/01/20 01:10:26;;;;;;;8.18;3.40;;;;;;;;;;5054479;28;20155;-77
2022/01/20 01:12:59;;;;;;;7.82;3.40;;;;;;;;;;5072370;28;20040;-74
2022/01/20 01:15:33;;;;;;;;;;;;;;;;;;5037999;28;20053;-73
2022/01/20 01:23:34;;;;;;;5.47;2.92;;;;;;;;;;5054439;28;20136;-73
2022/01/20 01:26:03;;;;;;;6.80;2.83;;;;;;;;;;5072235;28;20119;-73
2022/01/20 01:28:32;;;;;;;4.38;2.78;;;;;;;;;;5054434;28;20029;-74
2022/01/20 01:33:36;;;;;;;5.82;2.40;;;;;;;;;;5072214;28;20115;-73
2022/01/20 01:36:06;;;;;;;3.78;2.10;;;;;;;;;;5045979;28;20048;-72
2022/01/20 01:38:38;;;;;;;6.55;2.90;;;;;;;;;;5034324;28;20393;-75
2022/01/20 01:41:10;;;;;;;9.73;3.45;;;;;;;;;;5046645;28;20044;-72
2022/01/20 01:43:40;;;;;;;4.40;2.35;;;;;;;;;;5035242;28;20107;-73
2022/01/20 01:46:09;;;;;;;5.07;2.70;;;;;;;;;;5050474;28;20040;-75
2022/01/20 01:48:40;;;;;;;7.47;2.75;;;;;;;;;;5057425;28;20036;-73
2022/01/20 01:51:12;;;;;;;6.20;2.83;;;;;;;;;;5057664;28;20397;-72
2022/01/20 01:53:43;;;;;;;4.88;2.30;;;;;;;;;;5075700;28;20045;-73
2022/01/20 01:56:11;;;;;;;5.05;2.40;;;;;;;;;;5057795;28;20048;-74
2022/01/20 01:58:39;;;;;;;4.53;2.67;;;;;;;;;;5057664;28;20044;-76
2022/01/20 02:01:13;;;;;;;3.08;2.10;;;;;;;;;;5057658;28;20127;-74
2022/01/20 02:03:46;;;;;;;3.28;1.83;;;;;;;;;;5040999;28;20482;-72
2022/01/20 02:06:48;;;;;;;6.30;2.88;;;;;;;;;;5042870;28;20041;-73
2022/01/20 02:20:13;;;;;;;5.82;3.20;;;;;;;;;;5036700;28;20423;-72
2022/01/20 02:22:51;;;;;;;9.52;3.80;;;;;;;;;;5035488;28;20057;-72
2022/01/20 02:25:27;;;;;;;7.57;5.00;;;;;;;;;;5037075;28;20053;-76
2022/01/20 02:27:55;;;;;;;17.63;8.52;;;;;;;;;;5036970;28;20045;-74
2022/01/20 02:30:25;;;;;;;23.70;13.10;;;;;;;;;;5037135;28;20115;-77
2022/01/20 02:32:57;;;;;;;19.15;11.75;;;;;;;;;;5036894;28;20053;-74
2022/01/20 02:35:26;;;;;;;17.90;10.95;;;;;;;;;;5054756;28;20112;-72
2022/01/20 02:38:21;;;;;;;108.70;39.72;;;;;;;;;;5036869;28;20115;-76
2022/01/20 02:46:06;;;;;;;16.88;6.88;;;;;;;;;;5036425;28;20047;-73
2022/01/20 02:48:34;;;;;;;11.67;4.43;;;;;;;;;;5054459;28;20037;-77
2022/01/20 02:51:02;;;;;;;8.88;3.45;;;;;;;;;;5036771;28;20722;-74
2022/01/20 02:53:29;;;;;;;4.15;2.65;;;;;;;;;;5053326;28;20131;-72
2022/01/20 02:55:57;;;;;;;3.75;2.15;;;;;;;;;;5053457;28;20115;-74
2022/01/20 02:58:25;;;;;;;4.35;2.13;;;;;;;;;;5054422;28;20061;-72
2022/01/20 03:00:53;;;;;;;4.60;2.58;;;;;;;;;;5053231;28;20040;-72
2022/01/20 03:03:21;;;;;;;3.05;2.10;;;;;;;;;;5036397;28;20139;-72
2022/01/20 03:05:50;;;;;;;4.03;2.20;;;;;;;;;;5036380;28;20048;-72
2022/01/20 03:08:17;;;;;;;5.63;2.28;;;;;;;;;;5052478;28;20041;-76
2022/01/20 03:10:46;;;;;;;4.05;2.20;;;;;;;;;;5036092;28;20469;-75
2022/01/20 03:13:14;;;;;;;5.40;2.42;;;;;;;;;;5054332;28;20403;-74
2022/01/20 03:15:42;;;;;;;4.30;2.35;;;;;;;;;;5052612;28;20087;-77
2022/01/20 03:18:10;;;;;;;4.75;2.67;;;;;;;;;;5036218;28;20135;-74
2022/01/20 03:20:38;;;;;;;5.20;2.38;;;;;;;;;;5053756;28;20112;-77
2022/01/20 03:23:05;;;;;;;6.82;2.75;;;;;;;;;;5035903;28;20407;-72
2022/01/20 03:25:34;;;;;;;5.38;2.47;;;;;;;;;;5035777;28;20440;-74
2022/01/20 03:28:01;;;;;;;2.85;2.30;;;;;;;;;;5052467;28;20045;-72
2022/01/20 03:30:29;;;;;;;5.30;2.58;;;;;;;;;;5035738;28;20119;-77
2022/01/20 03:32:57;;;;;;;5.15;2.63;;;;;;;;;;5036065;28;20096;-74
2022/01/20 03:35:25;;;;;;;4.35;2.47;;;;;;;;;;5035632;28;20127;-72
2022/01/20 03:38:15;;;;;;;4.43;3.03;;;;;;;;;;5034588;28;20058;-72
2022/01/20 03:40:43;;;;;;;8.02;2.70;;;;;;;;;;5035624;28;20041;-72
2022/01/20 03:43:11;;;;;;;8.27;3.15;;;;;;;;;;5018710;28;20151;-72
2022/01/20 03:45:39;;;;;;;3.63;2.75;;;;;;;;;;5035658;28;20141;-72
2022/01/20 03:48:09;;;;;;;6.32;3.40;;;;;;;;;;5034957;28;20103;-72
2022/01/20 03:53:28;;;;;;;10.23;4.80;;;;;;;;;;5035425;28;20041;-72
2022/01/20 03:55:56;;;;;;;6.63;3.63;;;;;;;;;;5035293;28;20045;-77
2022/01/20 03:58:23;;;;;;;8.73;3.67;;;;;;;;;;5051965;28;20045;-77
2022/01/20 04:00:51;;;;;;;4.57;3.03;;;;;;;;;;5052208;28;20448;-72
2022/01/20 04:03:42;;;;;;;5.35;2.58;;;;;;;;;;5052706;28;20407;-77
2022/01/20 04:06:15;;;;;;;9.93;3.60;;;;;;;;;;5034532;28;20056;-72
2022/01/20 04:08:48;;;;;;;8.15;4.20;;;;;;;;;;5034816;28;20045;-74
2022/01/20 04:11:21;;;;;;;7.25;3.35;;;;;;;;;;5053143;28;20072;-72
2022/01/20 04:13:49;;;;;;;10.13;3.17;;;;;;;;;;5035145;28;20099;-72
2022/01/20 04:16:38;;;;;;;5.85;3.35;;;;;;;;;;5051576;28;20060;-72
2022/01/20 04:19:08;;;;;;;5.45;2.78;;;;;;;;;;5052756;28;20404;-76
2022/01/20 04:21:36;;;;;;;6.95;2.78;;;;;;;;;;5051532;28;20102;-74
2022/01/20 04:24:06;;;;;;;7.60;3.95;;;;;;;;;;5043395;28;20504;-72
2022/01/20 04:26:35;;;;;;;16.05;6.50;;;;;;;;;;5035042;28;20619;-77
2022/01/20 04:29:07;;;;;;;6.78;3.00;;;;;;;;;;5031539;28;20084;-72
2022/01/20 04:31:35;;;;;;;3.30;2.28;;;;;;;;;;5030672;28;20049;-72
2022/01/20 04:34:03;;;;;;;6.50;2.60;;;;;;;;;;5034879;28;20045;-77
2022/01/20 04:36:33;;;;;;;4.68;2.83;;;;;;;;;;5042542;28;20514;-75
2022/01/20 04:39:04;;;;;;;8.93;4.00;;;;;;;;;;5055116;28;20399;-72
2022/01/20 04:41:32;;;;;;;6.05;3.10;;;;;;;;;;5055014;28;20072;-72
2022/01/20 04:44:04;;;;;;;2.33;2.05;;;;;;;;;;5038295;28;20430;-72
2022/01/20 04:57:05;;;;;;;5.28;2.50;;;;;;;;;;5054157;28;20527;-76
2022/01/20 04:59:35;;;;;;;6.35;2.00;;;;;;;;;;5054169;28;20103;-77
2022/01/20 05:02:04;;;;;;;3.38;1.70;;;;;;;;;;5054280;28;20052;-74
2022/01/20 05:04:48;;;;;;;7.85;1.92;;;;;;;;;;5054488;28;20064;-72
2022/01/20 05:07:42;;;;;;;;;;;;;;;;;;5068659;28;20055;-72
2022/01/20 05:10:12;;;;;;;3.97;2.00;;;;;;;;;;5054192;28;20008;-72
2022/01/20 05:15:16;;;;;;;4.90;1.80;;;;;;;;;;5054199;28;20055;-72
2022/01/20 05:17:44;;;;;;;4.00;2.17;;;;;;;;;;5038166;28;20047;-76
2022/01/20 05:20:12;;;;;;;4.20;2.03;;;;;;;;;;5075877;28;20053;-72
2022/01/20 05:22:44;;;;;;;2.95;1.92;;;;;;;;;;5058130;28;20138;-73
2022/01/20 05:25:18;;;;;;;5.10;1.90;;;;;;;;;;5042502;28;20070;-72
2022/01/20 05:27:46;;;;;;;7.78;2.10;;;;;;;;;;5057850;28;20415;-74
2022/01/20 05:30:14;;;;;;;2.47;1.70;;;;;;;;;;5041453;28;20048;-72
2022/01/20 05:33:20;;;;;;;5.70;2.08;;;;;;;;;;5033624;28;20237;-74
2022/01/20 05:35:48;;;;;;;4.00;2.20;;;;;;;;;;5017139;28;20188;-76
2022/01/20 05:38:17;;;;;;;4.70;2.00;;;;;;;;;;5017411;28;20072;-77
2022/01/20 05:40:48;;;;;;;7.50;2.20;;;;;;;;;;5017034;28;20057;-74
2022/01/20 05:43:16;;;;;;;10.63;3.08;;;;;;;;;;5033029;28;20396;-72
2022/01/20 05:45:47;;;;;;;8.18;2.42;;;;;;;;;;5017003;28;20179;-72
2022/01/20 05:48:21;;;;;;;4.43;1.98;;;;;;;;;;5017164;28;20045;-72
2022/01/20 05:51:07;;;;;;;4.50;1.80;;;;;;;;;;5025847;28;20111;-76
2022/01/20 05:53:34;;;;;;;7.55;1.85;;;;;;;;;;5017092;28;20516;-72
2022/01/20 05:56:02;;;;;;;5.72;1.77;;;;;;;;;;5016886;28;20132;-72
2022/01/20 05:58:33;;;;;;;2.60;1.85;;;;;;;;;;5016902;28;20143;-72
2022/01/20 06:01:01;;;;;;;5.70;2.10;;;;;;;;;;5017192;28;20058;-72
2022/01/20 06:03:39;;;;;;;4.18;2.05;;;;;;;;;;5021319;28;20143;-74
2022/01/20 06:06:12;;;;;;;6.90;2.60;;;;;;;;;;5053721;28;20049;-73
2022/01/20 06:08:42;;;;;;;5.05;2.40;;;;;;;;;;5037462;28;20701;-73
2022/01/20 06:11:10;;;;;;;7.13;2.50;;;;;;;;;;5054349;28;20471;-72
2022/01/20 06:13:37;;;;;;;4.80;3.10;;;;;;;;;;5053867;28;20045;-76
2022/01/20 06:16:06;;;;;;;7.50;2.40;;;;;;;;;;5053737;28;20056;-72
2022/01/20 06:18:33;;;;;;;3.00;2.17;;;;;;;;;;5054207;28;20477;-72
2022/01/20 06:21:01;;;;;;;6.43;2.58;;;;;;;;;;5053383;28;20419;-73
2022/01/20 06:23:29;;;;;;;9.23;2.67;;;;;;;;;;5020763;28;20393;-73
2022/01/20 06:25:57;;;;;;;5.20;2.60;;;;;;;;;;5037195;28;20530;-72
2022/01/20 06:28:26;;;;;;;13.38;2.83;;;;;;;;;;5069954;28;20079;-76
2022/01/20 06:30:54;;;;;;;10.38;3.33;;;;;;;;;;5055382;28;20049;-72
2022/01/20 06:33:21;;;;;;;7.47;3.13;;;;;;;;;;5055957;28;20043;-72
2022/01/20 06:35:53;;;;;;;9.57;3.42;;;;;;;;;;5040235;28;20126;-76
2022/01/20 06:38:22;;;;;;;9.07;2.95;;;;;;;;;;5056685;28;20066;-76
2022/01/20 06:40:51;;;;;;;6.07;3.53;;;;;;;;;;5053173;28;20052;-79
2022/01/20 06:43:19;;;;;;;14.80;4.03;;;;;;;;;;5036126;28;20051;-74
2022/01/20 06:45:47;;;;;;;7.03;4.10;;;;;;;;;;5020330;28;20072;-76
2022/01/20 06:48:22;;;;;;;10.35;4.65;;;;;;;;;;5036334;28;20100;-71
2022/01/20 06:51:16;;;;;;;16.02;4.20;;;;;;;;;;5036548;28;20396;-78
2022/01/20 06:53:46;;;;;;;9.90;3.58;;;;;;;;;;5035753;28;20492;-72
2022/01/20 06:56:14;;;;;;;7.80;3.15;;;;;;;;;;5053809;28;20040;-79
2022/01/20 06:59:02;;;;;;;16.08;3.00;;;;;;;;;;5035612;28;20111;-72
2022/01/20 07:01:30;;;;;;;12.65;5.90;;;;;;;;;;5035520;28;20037;-72
2022/01/20 07:03:59;;;;;;;14.55;3.28;;;;;;;;;;5035908;28;20045;-78
2022/01/20 07:06:27;;;;;;;16.40;4.60;;;;;;;;;;5036099;28;20091;-78
2022/01/20 07:09:15;;;;;;;12.88;3.05;;;;;;;;;;5053882;28;20047;-78
2022/01/20 07:11:45;;;;;;;9.20;3.33;;;;;;;;;;5040110;28;20104;-77
2022/01/20 07:14:13;;;;;;;17.77;3.45;;;;;;;;;;5019957;28;20049;-76
2022/01/20 07:16:40;;;;;;;5.68;3.03;;;;;;;;;;5036428;28;20095;-77
2022/01/20 07:19:08;;;;;;;12.55;3.78;;;;;;;;;;5019851;28;20504;-76
2022/01/20 07:21:36;;;;;;;11.50;4.43;;;;;;;;;;5036124;28;20041;-78
2022/01/20 07:24:07;;;;;;;16.70;3.70;;;;;;;;;;5036026;28;20103;-78
2022/01/20 07:26:34;;;;;;;11.32;3.50;;;;;;;;;;5035491;28;20068;-79
2022/01/20 07:29:18;;;;;;;9.63;4.13;;;;;;;;;;5049209;28;20049;-73
2022/01/20 07:31:46;;;;;;;9.90;3.95;;;;;;;;;;5035461;28;20099;-75
2022/01/20 07:34:14;;;;;;;8.80;5.50;;;;;;;;;;5036127;28;20041;-73
2022/01/20 07:36:41;;;;;;;14.30;4.95;;;;;;;;;;5036199;28;20053;-71
2022/01/20 07:39:09;;;;;;;17.85;5.78;;;;;;;;;;5035849;28;20048;-73
2022/01/20 07:41:37;;;;;;;12.70;5.22;;;;;;;;;;5035401;28;20072;-72
2022/01/20 07:44:25;;;;;;;10.55;5.20;;;;;;;;;;5038475;28;20045;-71
2022/01/20 07:47:11;;;;;;;13.05;6.07;;;;;;;;;;5035666;28;20045;-73
2022/01/20 07:49:40;;;;;;;14.00;6.93;;;;;;;;;;5035440;28;20049;-72
2022/01/20 07:52:14;;;;;;;14.20;6.82;;;;;;;;;;5035357;28;20045;-76
2022/01/20 07:54:41;;;;;;;13.50;7.95;;;;;;;;;;5035435;28;20511;-77
2022/01/20 07:57:10;;;;;;;11.55;7.80;;;;;;;;;;5052943;28;20041;-74
2022/01/20 07:59:39;;;;;;;12.43;7.75;;;;;;;;;;5036071;28;20080;-75
2022/01/20 08:02:10;;;;;;;11.13;7.20;;;;;;;;;;5049965;28;20056;-74
2022/01/20 08:04:38;;;;;;;16.75;7.53;;;;;;;;;;5055531;28;20106;-74
2022/01/20 08:07:09;;;;;;;16.73;8.73;;;;;;;;;;5054683;28;20118;-71
2022/01/20 08:09:41;;;;;;;9.52;6.15;;;;;;;;;;5055368;28;20037;-68
2022/01/20 08:12:23;;;;;;;11.02;6.25;;;;;;;;;;5055350;28;20048;-68
2022/01/20 08:15:15;;;;;;;13.90;6.15;;;;;;;;;;5072862;28;20129;-68
2022/01/20 08:18:12;;;;;;;13.70;7.07;;;;;;;;;;5051049;28;20103;-69
2022/01/20 08:20:40;;;;;;;13.48;7.65;;;;;;;;;;5054931;28;20044;-68
2022/01/20 08:23:10;;;;;;;11.77;6.20;;;;;;;;;;5055035;28;20040;-68
2022/01/20 08:25:38;;;;;;;11.32;5.97;;;;;;;;;;5073126;28;20479;-68
2022/01/20 08:28:09;;;;;;;11.57;6.05;;;;;;;;;;5074867;28;20051;-69
2022/01/20 08:30:41;;;;;;;14.55;5.75;;;;;;;;;;5074963;28;20122;-68
2022/01/20 08:33:10;;;;;;;14.90;5.65;;;;;;;;;;5074338;28;20063;-72
2022/01/20 08:35:46;;;;;;;10.15;5.35;;;;;;;;;;5074577;28;20044;-66
2022/01/20 08:38:33;;;;;;;11.07;5.85;;;;;;;;;;5092998;28;20055;-66
2022/01/20 08:41:01;;;;;;;13.90;5.13;;;;;;;;;;5075143;28;20377;-68
2022/01/20 08:43:28;;;;;;;10.50;5.30;;;;;;;;;;5092695;28;20044;-68
2022/01/20 08:45:56;;;;;;;6.60;4.10;;;;;;;;;;5075005;28;20050;-68
2022/01/20 08:48:25;;;;;;;8.70;4.35;;;;;;;;;;5074564;28;20040;-68
2022/01/20 08:51:19;;;;;;;10.18;4.45;;;;;;;;;;5088874;28;20046;-73
2022/01/20 08:54:13;;;;;;;9.32;3.50;;;;;;;;;;5060934;28;20103;-75
2022/01/20 08:56:42;;;;;;;8.02;2.80;;;;;;;;;;5058792;28;20048;-72
2022/01/20 08:59:12;;;;;;;8.50;2.83;;;;;;;;;;5058270;28;20109;-75
2022/01/20 09:01:41;;;;;;;6.78;2.90;;;;;;;;;;5041369;28;20044;-72
2022/01/20 09:04:10;;;;;;;7.47;2.88;;;;;;;;;;5058751;28;20051;-79
2022/01/20 09:06:54;;;;;;;6.05;2.70;;;;;;;;;;5058656;28;20139;-78
2022/01/20 09:09:33;;;;;;;5.13;2.70;;;;;;;;;;5058591;28;20074;-72
2022/01/20 09:12:17;;;;;;;8.02;3.13;;;;;;;;;;5058319;28;20041;-75
2022/01/20 09:17:34;;;;;;;7.15;3.40;;;;;;;;;;5038231;28;20432;-74
2022/01/20 09:20:03;;;;;;;7.25;3.00;;;;;;;;;;5038321;28;20044;-73
2022/01/20 09:22:31;;;;;;;8.80;3.42;;;;;;;;;;5038794;28;20052;-73
2022/01/20 09:25:00;;;;;;;8.73;3.17;;;;;;;;;;5038779;28;20740;-73
2022/01/20 09:27:28;;;;;;;7.78;3.40;;;;;;;;;;5038381;28;20056;-73
2022/01/20 09:29:55;;;;;;;8.10;3.00;;;;;;;;;;5038256;28;20041;-77
2022/01/20 09:32:26;;;;;;;11.32;4.30;;;;;;;;;;5038184;28;20570;-77
2022/01/20 09:34:56;;;;;;;6.55;2.90;;;;;;;;;;5054988;28;20073;-75
2022/01/20 09:37:24;;;;;;;5.43;3.10;;;;;;;;;;5022136;28;20049;-74
2022/01/20 09:39:52;;;;;;;11.38;3.50;;;;;;;;;;5038262;28;20053;-74
2022/01/20 09:42:41;;;;;;;9.57;2.78;;;;;;;;;;5024810;28;20056;-78
2022/01/20 09:45:09;;;;;;;7.93;3.03;;;;;;;;;;5041814;28;20044;-73
2022/01/20 09:47:37;;;;;;;6.70;2.95;;;;;;;;;;5066308;28;20140;-73
2022/01/20 09:50:05;;;;;;;9.90;2.95;;;;;;;;;;5075715;28;20037;-75
2022/01/20 09:53:00;;;;;;;5.32;2.30;;;;;;;;;;5075231;28;20040;-72
2022/01/20 09:55:42;;;;;;;5.03;2.45;;;;;;;;;;5043026;28;20056;-79
2022/01/20 09:58:11;;;;;;;9.25;3.08;;;;;;;;;;5057921;28;20060;-78
2022/01/20 10:00:39;;;;;;;10.48;3.47;;;;;;;;;;5057612;28;20056;-79
2022/01/20 10:03:10;;;;;;;8.85;3.20;;;;;;;;;;5057094;28;20569;-75
2022/01/20 10:05:39;;;;;;;5.25;2.90;;;;;;;;;;5057360;28;20075;-75
2022/01/20 10:08:15;;;;;;;8.13;2.90;;;;;;;;;;5040680;28;20393;-78
2022/01/20 10:11:09;;;;;;;7.35;3.50;;;;;;;;;;5074449;28;20086;-75
2022/01/20 10:14:02;;;;;;;6.93;2.83;;;;;;;;;;5145337;22;20047;-75
2022/01/20 10:16:41;;;;;;;6.43;2.92;;;;;;;;;;5013529;28;20038;-78
2022/01/20 10:19:30;;;;;;;9.35;2.72;;;;;;;;;;5013167;28;20076;-75
2022/01/20 10:22:10;;;;;;;5.25;2.85;;;;;;;;;;5013374;28;20388;-75
2022/01/20 10:25:18;;;;;;;6.72;3.05;;;;;;;;;;5013728;28;20092;-78
2022/01/20 10:27:59;;;;;;;9.50;2.47;;;;;;;;;;5029758;28;20042;-75
2022/01/20 10:30:28;;;;;;;6.68;2.63;;;;;;;;;;4997713;28;20038;-74
2022/01/20 10:32:58;;;;;;;6.18;2.50;;;;;;;;;;5018684;28;20061;-75
2022/01/20 10:35:36;;;;;;;4.15;2.25;;;;;;;;;;4997273;28;20555;-74
2022/01/20 10:38:13;;;;;;;11.63;2.38;;;;;;;;;;5013322;28;20094;-76
2022/01/20 10:40:54;;;;;;;7.20;2.50;;;;;;;;;;4997051;28;20417;-73
2022/01/20 10:43:25;;;;;;;7.22;2.17;;;;;;;;;;5011950;28;20149;-72
2022/01/20 10:46:03;;;;;;;4.07;3.00;;;;;;;;;;4996908;28;20093;-73
2022/01/20 10:48:32;;;;;;;5.90;2.55;;;;;;;;;;4995080;28;20543;-74
2022/01/20 10:51:01;;;;;;;7.82;2.92;;;;;;;;;;5013127;28;20421;-72
2022/01/20 10:53:31;;;;;;;6.43;2.75;;;;;;;;;;5013193;28;20132;-73
2022/01/20 10:56:05;;;;;;;4.88;2.40;;;;;;;;;;4996633;28;20141;-76
2022/01/20 10:58:33;;;;;;;6.70;2.90;;;;;;;;;;4996565;28;20038;-74
2022/01/20 11:01:05;;;;;;;;;;;;;;;;;;5013336;28;20053;-77
2022/01/20 11:03:35;;;;;;;7.70;3.05;;;;;;;;;;5013195;28;19922;-73
2022/01/20 11:06:03;;;;;;;6.70;2.22;;;;;;;;;;5013904;28;20044;-73
2022/01/20 11:08:40;;;;;;;3.60;2.20;;;;;;;;;;5012627;28;20046;-73
2022/01/20 11:11:09;;;;;;;5.47;2.13;;;;;;;;;;4996666;28;20045;-76
2022/01/20 11:13:55;;;;;;;4.82;2.33;;;;;;;;;;5014603;28;20129;-77
2022/01/20 11:16:23;;;;;;;4.15;2.20;;;;;;;;;;5012120;28;20046;-77
2022/01/20 11:18:51;;;;;;;6.50;3.70;;;;;;;;;;4996281;28;20457;-73
2022/01/20 11:21:26;;;;;;;5.40;2.42;;;;;;;;;;5013464;28;20093;-73
2022/01/20 11:23:55;;;;;;;3.75;1.92;;;;;;;;;;5012630;28;20425;-72
2022/01/20 11:26:55;;;;;;;5.63;2.53;;;;;;;;;;4996163;28;20049;-73
2022/01/20 11:29:47;;;;;;;5.65;2.53;;;;;;;;;;4996099;28;20517;-72
2022/01/20 11:32:35;;;;;;;5.05;2.20;;;;;;;;;;5012643;28;20060;-76
2022/01/20 11:35:21;;;;;;;5.40;2.28;;;;;;;;;;4995849;28;20054;-72
2022/01/20 11:37:56;;;;;;;5.43;2.25;;;;;;;;;;5013662;28;20042;-76
2022/01/20 11:40:24;;;;;;;9.40;6.22;;;;;;;;;;5013519;28;20412;-76
2022/01/20 11:43:13;;;;;;;8.45;2.63;;;;;;;;;;4996118;28;20386;-72
2022/01/20 11:45:50;;;;;;;6.30;2.35;;;;;;;;;;5013386;28;20033;-72
2022/01/20 11:48:23;;;;;;;6.97;2.17;;;;;;;;;;5012296;28;20042;-72
2022/01/20 11:51:07;;;;;;;4.20;1.90;;;;;;;;;;4995372;28;20038;-76
2022/01/20 11:53:42;;;;;;;4.70;1.70;;;;;;;;;;5013437;28;20049;-72
2022/01/20 11:56:11;;;;;;;4.55;1.80;;;;;;;;;;5011865;28;20045;-76
2022/01/20 11:58:39;;;;;;;4.72;2.15;;;;;;;;;;5013215;28;20042;-73
2022/01/20 12:01:07;;;;;;;5.35;2.50;;;;;;;;;;5011806;28;20038;-76
2022/01/20 12:03:38;;;;;;;4.10;2.20;;;;;;;;;;4994960;28;20049;-77
2022/01/20 12:06:14;;;;;;;4.38;1.80;;;;;;;;;;5011562;28;20045;-76
2022/01/20 12:08:59;;;;;;;5.57;2.30;;;;;;;;;;5011750;28;20057;-73
2022/01/20 12:11:37;;;;;;;3.13;2.00;;;;;;;;;;5013227;28;20120;-73
2022/01/20 12:14:06;;;;;;;4.55;1.83;;;;;;;;;;5013025;28;20120;-73
2022/01/20 12:16:34;;;;;;;5.35;2.35;;;;;;;;;;5011729;28;20062;-77
2022/01/20 12:19:05;;;;;;;3.72;2.00;;;;;;;;;;4995370;28;20037;-77
2022/01/20 12:21:32;;;;;;;6.25;2.20;;;;;;;;;;5012440;28;20503;-77
2022/01/20 12:24:00;;;;;;;5.72;2.83;;;;;;;;;;5011690;28;20048;-72
2022/01/20 12:26:29;;;;;;;6.68;2.10;;;;;;;;;;5011666;28;20412;-76
2022/01/20 12:29:04;;;;;;;5.63;2.35;;;;;;;;;;5011870;28;20143;-73
2022/01/20 12:31:32;;;;;;;2.55;1.60;;;;;;;;;;5012108;28;20042;-76
2022/01/20 12:33:59;;;;;;;4.70;1.80;;;;;;;;;;5012796;28;20048;-72
2022/01/20 12:36:27;;;;;;;3.63;1.90;;;;;;;;;;4995742;28;20129;-72
2022/01/20 12:38:55;;;;;;;4.00;1.70;;;;;;;;;;5012166;28;20034;-76
2022/01/20 12:41:23;;;;;;;10.88;2.05;;;;;;;;;;5012187;28;20161;-72
2022/01/20 12:43:53;;;;;;;4.72;2.22;;;;;;;;;;5011376;28;20052;-73
2022/01/20 12:46:21;;;;;;;3.78;1.98;;;;;;;;;;5011698;28;20038;-73
2022/01/20 12:48:56;;;;;;;6.95;2.25;;;;;;;;;;5011708;28;20046;-72
2022/01/20 12:51:31;;;;;;;3.10;1.90;;;;;;;;;;5010750;28;20065;-76
2022/01/20 12:54:07;;;;;;;6.93;2.20;;;;;;;;;;5009001;28;20046;-72
2022/01/20 12:56:38;;;;;;;4.15;1.60;;;;;;;;;;4994822;28;20040;-73
2022/01/20 12:59:06;;;;;;;3.22;1.92;;;;;;;;;;5012647;28;20038;-72
2022/01/20 13:01:55;;;;;;;4.57;1.98;;;;;;;;;;5012277;28;20034;-73
2022/01/20 13:04:24;;;;;;;2.80;1.83;;;;;;;;;;5011373;28;20046;-73
2022/01/20 13:06:56;;;;;;;15.73;2.42;;;;;;;;;;5011232;28;20038;-72
2022/01/20 13:09:26;;;;;;;6.55;2.40;;;;;;;;;;5010311;28;20052;-73
2022/01/20 13:11:57;;;;;;;5.18;2.15;;;;;;;;;;5012214;28;20045;-76
2022/01/20 13:14:40;;;;;;;2.83;1.88;;;;;;;;;;4994737;28;20050;-72
2022/01/20 13:17:10;;;;;;;4.45;2.13;;;;;;;;;;5005668;28;20137;-75
2022/01/20 13:19:45;;;;;;;6.35;2.50;;;;;;;;;;5010567;28;20038;-73
2022/01/20 13:22:20;;;;;;;6.78;2.92;;;;;;;;;;5008624;28;20489;-72
2022/01/20 13:24:48;;;;;;;12.57;2.40;;;;;;;;;;5011512;28;20038;-72
2022/01/20 13:27:15;;;;;;;3.05;1.98;;;;;;;;;;5011696;28;20049;-76
2022/01/20 13:29:44;;;;;;;6.45;2.45;;;;;;;;;;5011406;28;20041;-73
2022/01/20 13:32:13;;;;;;;4.75;2.00;;;;;;;;;;5012468;28;20038;-76
2022/01/20 13:34:51;;;;;;;4.82;2.28;;;;;;;;;;5011776;28;20034;-72
2022/01/20 13:37:19;;;;;;;4.07;2.10;;;;;;;;;;5011276;28;20453;-73
2022/01/20 13:39:47;;;;;;;3.97;2.15;;;;;;;;;;5013126;28;20046;-72
2022/01/20 13:42:29;;;;;;;4.10;2.42;;;;;;;;;;5016155;28;20053;-72
2022/01/20 13:45:14;;;;;;;5.45;2.50;;;;;;;;;;5015941;28;20041;-73
2022/01/20 13:47:53;;;;;;;3.00;2.13;;;;;;;;;;5015567;28;20045;-72
2022/01/20 13:50:25;;;;;;;6.68;2.40;;;;;;;;;;5015662;28;20042;-73
2022/01/20 13:52:54;;;;;;;5.80;2.45;;;;;;;;;;5014493;28;20034;-72
2022/01/20 13:55:23;;;;;;;4.22;2.30;;;;;;;;;;5014317;28;20034;-73
2022/01/20 13:57:53;;;;;;;6.40;2.90;;;;;;;;;;5009912;28;20034;-72
2022/01/20 14:00:21;;;;;;;4.20;2.17;;;;;;;;;;5013217;28;20330;-76
2022/01/20 14:02:50;;;;;;;2.63;2.00;;;;;;;;;;5010857;28;20496;-72
2022/01/20 14:05:38;;;;;;;2.50;2.00;;;;;;;;;;5004325;28;20072;-72
2022/01/20 14:08:06;;;;;;;3.05;2.03;;;;;;;;;;5012641;28;20049;-72
2022/01/20 14:10:34;;;;;;;5.32;2.20;;;;;;;;;;5012067;28;20042;-72
2022/01/20 14:13:01;;;;;;;3.47;2.20;;;;;;;;;;5012834;28;20065;-75
2022/01/20 14:15:29;;;;;;;4.57;2.70;;;;;;;;;;5012713;28;20042;-72
2022/01/20 14:18:02;;;;;;;6.38;2.65;;;;;;;;;;5012392;28;20042;-72
2022/01/20 14:20:31;;;;;;;5.88;2.38;;;;;;;;;;4995933;28;20046;-72
2022/01/20 14:23:00;;;;;;;3.72;2.20;;;;;;;;;;5003733;28;20061;-72
2022/01/20 14:25:28;;;;;;;6.35;2.47;;;;;;;;;;5012317;28;20048;-72
2022/01/20 14:27:56;;;;;;;7.28;2.40;;;;;;;;;;5012563;28;20362;-72
2022/01/20 14:30:25;;;;;;;9.40;2.67;;;;;;;;;;5012734;28;20057;-71
2022/01/20 14:32:53;;;;;;;5.65;2.42;;;;;;;;;;4994593;28;20037;-72
2022/01/20 14:35:21;;;;;;;7.13;2.55;;;;;;;;;;5017865;28;20052;-72
2022/01/20 14:37:53;;;;;;;8.55;2.40;;;;;;;;;;5010715;28;20042;-72
2022/01/20 14:40:22;;;;;;;4.18;2.42;;;;;;;;;;4994774;28;20144;-72
2022/01/20 14:42:50;;;;;;;6.07;2.20;;;;;;;;;;5014945;28;20049;-72
2022/01/20 14:45:20;;;;;;;4.65;2.33;;;;;;;;;;5011164;28;20042;-72
2022/01/20 14:47:52;;;;;;;5.97;2.15;;;;;;;;;;5004914;28;20045;-72
2022/01/20 14:50:20;;;;;;;6.10;2.05;;;;;;;;;;5011794;28;20038;-76
2022/01/20 14:52:48;;;;;;;10.13;2.47;;;;;;;;;;5011777;28;20034;-73
2022/01/20 14:55:16;;;;;;;7.07;2.20;;;;;;;;;;5014475;28;20034;-76
2022/01/20 14:57:44;;;;;;;6.38;2.30;;;;;;;;;;5013172;28;20034;-71
2022/01/20 15:00:14;;;;;;;5.97;2.80;;;;;;;;;;5013518;28;20112;-72
2022/01/20 15:02:47;;;;;;;4.95;2.00;;;;;;;;;;5012960;28;20108;-72
2022/01/20 15:05:16;;;;;;;4.05;2.47;;;;;;;;;;4996871;28;20097;-76
2022/01/20 15:07:44;;;;;;;3.22;2.60;;;;;;;;;;5014703;28;20092;-72
2022/01/20 15:10:12;;;;;;;5.25;2.38;;;;;;;;;;5013042;28;20046;-72
2022/01/20 15:12:42;;;;;;;4.22;2.35;;;;;;;;;;5013819;28;20038;-72
2022/01/20 15:15:10;;;;;;;3.00;2.28;;;;;;;;;;5012768;28;20038;-72
2022/01/20 15:17:40;;;;;;;7.75;2.72;;;;;;;;;;5013139;28;20029;-72
2022/01/20 15:20:08;;;;;;;8.95;2.58;;;;;;;;;;5011614;28;20034;-76
2022/01/20 15:22:35;;;;;;;7.18;2.50;;;;;;;;;;5012648;28;20153;-75
2022/01/20 15:25:05;;;;;;;5.28;2.40;;;;;;;;;;5014073;28;20145;-72
2022/01/20 15:27:33;;;;;;;6.00;2.53;;;;;;;;;;5012434;28;20512;-72
2022/01/20 15:30:01;;;;;;;5.95;2.20;;;;;;;;;;5013525;28;20046;-71
2022/01/20 15:32:40;;;;;;;5.15;2.25;;;;;;;;;;5010984;28;20038;-73
2022/01/20 15:35:07;;;;;;;5.50;2.53;;;;;;;;;;5013858;28;20136;-71
2022/01/20 15:37:36;;;;;;;8.20;2.75;;;;;;;;;;5013513;28;20057;-71
2022/01/20 15:40:08;;;;;;;4.30;2.40;;;;;;;;;;5013477;28;20038;-71
2022/01/20 15:42:36;;;;;;;6.50;2.90;;;;;;;;;;5019034;28;20386;-71
2022/01/20 15:45:06;;;;;;;5.97;2.63;;;;;;;;;;5012010;28;20046;-75
2022/01/20 15:47:34;;;;;;;3.65;2.63;;;;;;;;;;5018529;28;20474;-71
2022/01/20 15:50:03;;;;;;;4.68;3.08;;;;;;;;;;5012751;28;20067;-71
2022/01/20 15:52:31;;;;;;;5.20;2.70;;;;;;;;;;4995668;28;20117;-74
2022/01/20 15:54:58;;;;;;;9.27;2.85;;;;;;;;;;5013181;28;20026;-71
2022/01/20 15:57:26;;;;;;;6.90;2.78;;;;;;;;;;5013119;28;20085;-71
2022/01/20 15:59:53;;;;;;;7.95;2.83;;;;;;;;;;5011852;28;20130;-71
2022/01/20 16:02:21;;;;;;;5.13;2.90;;;;;;;;;;5012571;28;20041;-71
2022/01/20 16:04:49;;;;;;;3.85;2.75;;;;;;;;;;5012035;28;20073;-71
2022/01/20 16:07:20;;;;;;;5.10;2.50;;;;;;;;;;5009821;28;20045;-75
2022/01/20 16:09:47;;;;;;;6.40;2.60;;;;;;;;;;4979215;28;20137;-76
2022/01/20 16:12:15;;;;;;;4.47;2.80;;;;;;;;;;5018923;28;20109;-76
2022/01/20 16:14:43;;;;;;;5.13;2.55;;;;;;;;;;5011731;28;20046;-71
2022/01/20 16:17:11;;;;;;;6.03;3.03;;;;;;;;;;5012349;28;20056;-71
2022/01/20 16:19:38;;;;;;;6.18;3.15;;;;;;;;;;5012595;28;20034;-71
2022/01/20 16:22:06;;;;;;;4.93;3.05;;;;;;;;;;5012266;28;20145;-72